sensor_id;sensor_type;location;lat;lon;timestamp;pressure;altitude;pressure_sealevel;temperature
24714;BMP280;12820;51.580;5.010;2023-09-19T00:02:09;100729.97;;;18.25
24714;BMP280;12820;51.580;5.010;2023-09-19T00:07:13;100741.97;;;18.22
24714;BMP280;12820;51.580;5.010;2023-09-19T00:12:16;100746.44;;;18.17
24714;BMP280;12820;51.580;5.010;2023-09-19T00:17:18;100750.84;;;18.14
24714;BMP280;12820;51.580;5.010;2023-09-19T00:22:20;100758.69;;;18.09
24714;BMP280;12820;51.580;5.010;2023-09-19T00:27:22;100763.84;;;18.08
24714;BMP280;12820;51.580;5.010;2023-09-19T00:32:25;100775.06;;;18.04
24714;BMP280;12820;51.580;5.010;2023-09-19T00:37:27;100785.38;;;18.01
24714;BMP280;12820;51.580;5.010;2023-09-19T00:42:29;100783.88;;;17.97
24714;BMP280;12820;51.580;5.010;2023-09-19T00:47:32;100790.88;;;17.92
24714;BMP280;12820;51.580;5.010;2023-09-19T00:52:35;100808.88;;;17.88
24714;BMP280;12820;51.580;5.010;2023-09-19T00:57:41;100804.06;;;17.82
24714;BMP280;12820;51.580;5.010;2023-09-19T01:02:44;100813.63;;;17.76
24714;BMP280;12820;51.580;5.010;2023-09-19T01:07:47;100828.25;;;17.71
24714;BMP280;12820;51.580;5.010;2023-09-19T01:19:24;100817.81;;;17.57
24714;BMP280;12820;51.580;5.010;2023-09-19T01:29:46;100839.44;;;17.47
24714;BMP280;12820;51.580;5.010;2023-09-19T01:34:50;100833.75;;;17.41
24714;BMP280;12820;51.580;5.010;2023-09-19T01:45:06;100835.03;;;17.31
24714;BMP280;12820;51.580;5.010;2023-09-19T01:50:32;100844.50;;;17.28
24714;BMP280;12820;51.580;5.010;2023-09-19T01:55:43;100834.47;;;17.25
24714;BMP280;12820;51.580;5.010;2023-09-19T02:00:51;100839.66;;;17.22
24714;BMP280;12820;51.580;5.010;2023-09-19T02:05:54;100834.72;;;17.19
24714;BMP280;12820;51.580;5.010;2023-09-19T02:10:57;100834.84;;;17.16
24714;BMP280;12820;51.580;5.010;2023-09-19T02:16:00;100836.75;;;17.11
24714;BMP280;12820;51.580;5.010;2023-09-19T02:21:02;100834.41;;;17.07
24714;BMP280;12820;51.580;5.010;2023-09-19T02:26:05;100843.81;;;17.04
24714;BMP280;12820;51.580;5.010;2023-09-19T02:31:08;100838.88;;;17.01
24714;BMP280;12820;51.580;5.010;2023-09-19T02:36:10;100838.19;;;16.97
24714;BMP280;12820;51.580;5.010;2023-09-19T02:41:12;100845.97;;;16.93
24714;BMP280;12820;51.580;5.010;2023-09-19T02:46:14;100841.09;;;16.87
24714;BMP280;12820;51.580;5.010;2023-09-19T02:51:19;100846.34;;;16.83
24714;BMP280;12820;51.580;5.010;2023-09-19T02:56:22;100838.91;;;16.78
24714;BMP280;12820;51.580;5.010;2023-09-19T03:01:27;100848.28;;;16.76
24714;BMP280;12820;51.580;5.010;2023-09-19T03:06:33;100853.53;;;16.72
24714;BMP280;12820;51.580;5.010;2023-09-19T03:11:35;100853.69;;;16.69
24714;BMP280;12820;51.580;5.010;2023-09-19T03:16:37;100857.13;;;16.67
24714;BMP280;12820;51.580;5.010;2023-09-19T03:21:40;100858.09;;;16.64
24714;BMP280;12820;51.580;5.010;2023-09-19T03:26:42;100846.38;;;16.60
24714;BMP280;12820;51.580;5.010;2023-09-19T03:31:45;100847.34;;;16.58
24714;BMP280;12820;51.580;5.010;2023-09-19T03:36:48;100861.03;;;16.54
24714;BMP280;12820;51.580;5.010;2023-09-19T03:41:50;100855.09;;;16.55
24714;BMP280;12820;51.580;5.010;2023-09-19T03:46:53;100850.16;;;16.51
24714;BMP280;12820;51.580;5.010;2023-09-19T03:51:58;100854.53;;;16.47
24714;BMP280;12820;51.580;5.010;2023-09-19T03:57:00;100852.84;;;16.46
24714;BMP280;12820;51.580;5.010;2023-09-19T04:02:03;100845.31;;;16.45
24714;BMP280;12820;51.580;5.010;2023-09-19T04:07:06;100852.84;;;16.46
24714;BMP280;12820;51.580;5.010;2023-09-19T04:12:09;100843.16;;;16.57
24714;BMP280;12820;51.580;5.010;2023-09-19T04:17:11;100863.91;;;16.66
24714;BMP280;12820;51.580;5.010;2023-09-19T04:22:13;100872.97;;;16.73
24714;BMP280;12820;51.580;5.010;2023-09-19T04:27:16;100883.00;;;16.76
24714;BMP280;12820;51.580;5.010;2023-09-19T04:32:18;100896.66;;;16.73
24714;BMP280;12820;51.580;5.010;2023-09-19T04:37:20;100900.94;;;16.71
24714;BMP280;12820;51.580;5.010;2023-09-19T04:42:23;100908.59;;;16.70
24714;BMP280;12820;51.580;5.010;2023-09-19T04:47:27;100917.13;;;16.69
24714;BMP280;12820;51.580;5.010;2023-09-19T04:52:30;100915.38;;;16.70
24714;BMP280;12820;51.580;5.010;2023-09-19T04:57:33;100916.94;;;16.73
24714;BMP280;12820;51.580;5.010;2023-09-19T05:02:35;100910.81;;;16.79
24714;BMP280;12820;51.580;5.010;2023-09-19T05:07:41;100912.28;;;16.84
24714;BMP280;12820;51.580;5.010;2023-09-19T05:12:44;100914.72;;;16.87
24714;BMP280;12820;51.580;5.010;2023-09-19T05:17:51;100907.81;;;16.90
24714;BMP280;12820;51.580;5.010;2023-09-19T05:22:59;100911.16;;;16.92
24714;BMP280;12820;51.580;5.010;2023-09-19T05:28:08;100927.09;;;16.96
24714;BMP280;12820;51.580;5.010;2023-09-19T05:33:10;100923.56;;;17.00
24714;BMP280;12820;51.580;5.010;2023-09-19T05:38:13;100909.94;;;17.02
24714;BMP280;12820;51.580;5.010;2023-09-19T05:43:15;100919.13;;;17.05
24714;BMP280;12820;51.580;5.010;2023-09-19T05:48:18;100916.44;;;17.07
24714;BMP280;12820;51.580;5.010;2023-09-19T05:53:20;100922.31;;;17.09
24714;BMP280;12820;51.580;5.010;2023-09-19T05:58:22;100916.22;;;17.13
24714;BMP280;12820;51.580;5.010;2023-09-19T06:03:24;100916.94;;;17.17
24714;BMP280;12820;51.580;5.010;2023-09-19T06:08:27;100919.66;;;17.12
24714;BMP280;12820;51.580;5.010;2023-09-19T06:13:32;100931.69;;;17.07
24714;BMP280;12820;51.580;5.010;2023-09-19T06:18:35;100935.16;;;17.07
24714;BMP280;12820;51.580;5.010;2023-09-19T06:23:38;100946.13;;;17.07
24714;BMP280;12820;51.580;5.010;2023-09-19T06:28:41;100953.66;;;17.08
24714;BMP280;12820;51.580;5.010;2023-09-19T06:34:08;100955.19;;;17.12
24714;BMP280;12820;51.580;5.010;2023-09-19T06:39:26;100939.72;;;17.18
24714;BMP280;12820;51.580;5.010;2023-09-19T06:44:28;100958.16;;;17.23
24714;BMP280;12820;51.580;5.010;2023-09-19T06:49:31;100968.97;;;17.28
24714;BMP280;12820;51.580;5.010;2023-09-19T06:54:33;100950.97;;;17.34
24714;BMP280;12820;51.580;5.010;2023-09-19T06:59:36;100951.56;;;17.40
24714;BMP280;12820;51.580;5.010;2023-09-19T07:04:39;100960.63;;;17.45
24714;BMP280;12820;51.580;5.010;2023-09-19T07:09:41;100962.06;;;17.52
24714;BMP280;12820;51.580;5.010;2023-09-19T07:14:44;100960.94;;;17.59
24714;BMP280;12820;51.580;5.010;2023-09-19T07:19:46;100956.13;;;17.73
24714;BMP280;12820;51.580;5.010;2023-09-19T07:24:50;100953.19;;;17.83
24714;BMP280;12820;51.580;5.010;2023-09-19T07:29:52;100961.16;;;17.94
24714;BMP280;12820;51.580;5.010;2023-09-19T07:34:56;100961.50;;;18.06
24714;BMP280;12820;51.580;5.010;2023-09-19T07:40:06;100969.44;;;18.18
24714;BMP280;12820;51.580;5.010;2023-09-19T07:45:09;100965.56;;;18.29
24714;BMP280;12820;51.580;5.010;2023-09-19T07:50:17;100959.19;;;18.39
24714;BMP280;12820;51.580;5.010;2023-09-19T07:55:22;100968.91;;;18.49
24714;BMP280;12820;51.580;5.010;2023-09-19T08:00:27;100960.91;;;18.56
24714;BMP280;12820;51.580;5.010;2023-09-19T08:05:29;100971.56;;;18.64
24714;BMP280;12820;51.580;5.010;2023-09-19T08:10:35;100968.75;;;18.71
24714;BMP280;12820;51.580;5.010;2023-09-19T08:15:42;100967.50;;;18.80
24714;BMP280;12820;51.580;5.010;2023-09-19T08:20:50;100975.03;;;18.83
24714;BMP280;12820;51.580;5.010;2023-09-19T08:25:56;100979.81;;;18.88
24714;BMP280;12820;51.580;5.010;2023-09-19T08:31:06;100972.06;;;18.91
24714;BMP280;12820;51.580;5.010;2023-09-19T08:36:08;100954.06;;;18.94
24714;BMP280;12820;51.580;5.010;2023-09-19T08:41:11;100971.47;;;19.03
24714;BMP280;12820;51.580;5.010;2023-09-19T08:46:18;100956.28;;;19.20
24714;BMP280;12820;51.580;5.010;2023-09-19T08:51:27;100960.00;;;19.47
24714;BMP280;12820;51.580;5.010;2023-09-19T08:56:32;100975.97;;;19.85
24714;BMP280;12820;51.580;5.010;2023-09-19T09:01:35;100970.31;;;20.12
24714;BMP280;12820;51.580;5.010;2023-09-19T09:06:38;100966.09;;;20.28
24714;BMP280;12820;51.580;5.010;2023-09-19T09:11:41;100974.69;;;20.58
24714;BMP280;12820;51.580;5.010;2023-09-19T09:16:44;100947.75;;;20.83
24714;BMP280;12820;51.580;5.010;2023-09-19T09:21:47;100941.50;;;21.03
24714;BMP280;12820;51.580;5.010;2023-09-19T09:26:49;100931.09;;;21.06
24714;BMP280;12820;51.580;5.010;2023-09-19T09:31:54;100930.47;;;20.88
24714;BMP280;12820;51.580;5.010;2023-09-19T09:36:56;100942.84;;;20.80
24714;BMP280;12820;51.580;5.010;2023-09-19T09:41:58;100940.84;;;20.85
24714;BMP280;12820;51.580;5.010;2023-09-19T09:47:01;100944.00;;;20.90
24714;BMP280;12820;51.580;5.010;2023-09-19T09:52:22;100937.41;;;21.01
24714;BMP280;12820;51.580;5.010;2023-09-19T09:57:26;100957.44;;;21.08
24714;BMP280;12820;51.580;5.010;2023-09-19T10:02:29;100937.41;;;21.16
24714;BMP280;12820;51.580;5.010;2023-09-19T10:07:35;100960.50;;;21.15
24714;BMP280;12820;51.580;5.010;2023-09-19T10:12:47;100941.03;;;21.12
24714;BMP280;12820;51.580;5.010;2023-09-19T10:17:51;100927.94;;;21.18
24714;BMP280;12820;51.580;5.010;2023-09-19T10:22:57;100931.03;;;21.38
24714;BMP280;12820;51.580;5.010;2023-09-19T10:28:00;100927.94;;;21.62
24714;BMP280;12820;51.580;5.010;2023-09-19T10:33:06;100921.56;;;21.82
24714;BMP280;12820;51.580;5.010;2023-09-19T10:38:14;100906.47;;;22.07
24714;BMP280;12820;51.580;5.010;2023-09-19T10:43:25;100909.97;;;22.19
24714;BMP280;12820;51.580;5.010;2023-09-19T10:48:27;100901.81;;;22.26
24714;BMP280;12820;51.580;5.010;2023-09-19T10:53:50;100888.72;;;22.44
24714;BMP280;12820;51.580;5.010;2023-09-19T10:59:14;100898.19;;;22.58
24714;BMP280;12820;51.580;5.010;2023-09-19T11:04:24;100887.25;;;22.68
24714;BMP280;12820;51.580;5.010;2023-09-19T11:15:03;100865.75;;;23.22
24714;BMP280;12820;51.580;5.010;2023-09-19T11:20:18;100860.91;;;23.43
24714;BMP280;12820;51.580;5.010;2023-09-19T11:30:41;100831.00;;;23.92
24714;BMP280;12820;51.580;5.010;2023-09-19T11:36:08;100829.19;;;24.29
24714;BMP280;12820;51.580;5.010;2023-09-19T11:46:31;100835.13;;;24.77
24714;BMP280;12820;51.580;5.010;2023-09-19T11:51:40;100820.50;;;24.90
24714;BMP280;12820;51.580;5.010;2023-09-19T11:56:45;100834.50;;;25.19
24714;BMP280;12820;51.580;5.010;2023-09-19T12:01:52;100828.06;;;25.14
24714;BMP280;12820;51.580;5.010;2023-09-19T12:07:01;100830.22;;;24.74
24714;BMP280;12820;51.580;5.010;2023-09-19T12:12:04;100840.78;;;24.35
24714;BMP280;12820;51.580;5.010;2023-09-19T12:17:06;100847.41;;;24.02
24714;BMP280;12820;51.580;5.010;2023-09-19T12:22:08;100842.28;;;24.02
24714;BMP280;12820;51.580;5.010;2023-09-19T12:27:11;100823.16;;;24.53
24714;BMP280;12820;51.580;5.010;2023-09-19T12:32:14;100821.41;;;25.12
24714;BMP280;12820;51.580;5.010;2023-09-19T12:37:18;100819.63;;;25.35
24714;BMP280;12820;51.580;5.010;2023-09-19T12:42:25;100810.47;;;24.97
24714;BMP280;12820;51.580;5.010;2023-09-19T12:47:34;100816.38;;;24.64
24714;BMP280;12820;51.580;5.010;2023-09-19T12:52:37;100825.38;;;24.35
24714;BMP280;12820;51.580;5.010;2023-09-19T12:57:40;100835.81;;;24.09
24714;BMP280;12820;51.580;5.010;2023-09-19T13:03:17;100838.56;;;23.82
24714;BMP280;12820;51.580;5.010;2023-09-19T13:08:35;100839.56;;;23.67
24714;BMP280;12820;51.580;5.010;2023-09-19T13:13:45;100826.84;;;23.53
24714;BMP280;12820;51.580;5.010;2023-09-19T13:18:55;100842.66;;;23.48
24714;BMP280;12820;51.580;5.010;2023-09-19T13:29:21;100836.28;;;23.77
24714;BMP280;12820;51.580;5.010;2023-09-19T13:34:23;100817.22;;;24.18
24714;BMP280;12820;51.580;5.010;2023-09-19T13:39:26;100821.63;;;24.16
24714;BMP280;12820;51.580;5.010;2023-09-19T13:44:28;100835.09;;;24.07
24714;BMP280;12820;51.580;5.010;2023-09-19T13:49:32;100821.81;;;23.88
24714;BMP280;12820;51.580;5.010;2023-09-19T13:54:34;100814.34;;;23.86
24714;BMP280;12820;51.580;5.010;2023-09-19T13:59:36;100809.41;;;24.07
24714;BMP280;12820;51.580;5.010;2023-09-19T14:04:38;100816.09;;;23.97
24714;BMP280;12820;51.580;5.010;2023-09-19T14:09:41;100810.31;;;23.82
24714;BMP280;12820;51.580;5.010;2023-09-19T14:14:43;100812.69;;;23.60
24714;BMP280;12820;51.580;5.010;2023-09-19T14:19:47;100800.16;;;23.44
24714;BMP280;12820;51.580;5.010;2023-09-19T14:24:49;100820.44;;;23.34
24714;BMP280;12820;51.580;5.010;2023-09-19T14:29:51;100810.50;;;23.30
24714;BMP280;12820;51.580;5.010;2023-09-19T14:34:53;100803.63;;;23.31
24714;BMP280;12820;51.580;5.010;2023-09-19T14:39:55;100789.47;;;23.25
24714;BMP280;12820;51.580;5.010;2023-09-19T14:44:58;100805.19;;;23.19
24714;BMP280;12820;51.580;5.010;2023-09-19T14:50:02;100799.25;;;23.07
24714;BMP280;12820;51.580;5.010;2023-09-19T14:55:08;100803.31;;;22.97
24714;BMP280;12820;51.580;5.010;2023-09-19T15:00:13;100798.88;;;22.87
24714;BMP280;12820;51.580;5.010;2023-09-19T15:05:16;100799.56;;;22.77
24714;BMP280;12820;51.580;5.010;2023-09-19T15:10:22;100790.00;;;22.66
24714;BMP280;12820;51.580;5.010;2023-09-19T15:15:24;100803.81;;;22.64
24714;BMP280;12820;51.580;5.010;2023-09-19T15:20:26;100798.75;;;22.62
24714;BMP280;12820;51.580;5.010;2023-09-19T15:25:29;100798.34;;;22.56
24714;BMP280;12820;51.580;5.010;2023-09-19T15:30:31;100813.53;;;22.45
24714;BMP280;12820;51.580;5.010;2023-09-19T15:35:33;100806.31;;;22.38
24714;BMP280;12820;51.580;5.010;2023-09-19T15:40:46;100814.47;;;22.31
24714;BMP280;12820;51.580;5.010;2023-09-19T15:45:49;100813.28;;;22.23
24714;BMP280;12820;51.580;5.010;2023-09-19T15:50:51;100811.94;;;22.17
24714;BMP280;12820;51.580;5.010;2023-09-19T15:55:53;100818.31;;;22.10
24714;BMP280;12820;51.580;5.010;2023-09-19T16:00:56;100817.78;;;22.06
24714;BMP280;12820;51.580;5.010;2023-09-19T16:05:58;100835.19;;;22.01
24714;BMP280;12820;51.580;5.010;2023-09-19T16:11:00;100823.44;;;21.97
24714;BMP280;12820;51.580;5.010;2023-09-19T16:16:03;100825.56;;;21.90
24714;BMP280;12820;51.580;5.010;2023-09-19T16:21:06;100806.28;;;21.85
24714;BMP280;12820;51.580;5.010;2023-09-19T16:26:10;100817.75;;;21.78
24714;BMP280;12820;51.580;5.010;2023-09-19T16:31:14;100816.38;;;21.73
24714;BMP280;12820;51.580;5.010;2023-09-19T16:36:18;100814.00;;;21.70
24714;BMP280;12820;51.580;5.010;2023-09-19T16:41:20;100817.75;;;21.65
24714;BMP280;12820;51.580;5.010;2023-09-19T16:46:24;100811.09;;;21.62
24714;BMP280;12820;51.580;5.010;2023-09-19T16:51:27;100815.38;;;21.62
24714;BMP280;12820;51.580;5.010;2023-09-19T16:56:30;100815.53;;;21.59
24714;BMP280;12820;51.580;5.010;2023-09-19T17:01:35;100818.28;;;21.56
24714;BMP280;12820;51.580;5.010;2023-09-19T17:06:38;100827.97;;;21.51
24714;BMP280;12820;51.580;5.010;2023-09-19T17:11:41;100835.91;;;21.47
24714;BMP280;12820;51.580;5.010;2023-09-19T17:16:43;100842.00;;;21.44
24714;BMP280;12820;51.580;5.010;2023-09-19T17:21:46;100844.16;;;21.36
24714;BMP280;12820;51.580;5.010;2023-09-19T17:26:48;100842.97;;;21.28
24714;BMP280;12820;51.580;5.010;2023-09-19T17:31:51;100843.56;;;21.18
24714;BMP280;12820;51.580;5.010;2023-09-19T17:36:53;100857.75;;;21.08
24714;BMP280;12820;51.580;5.010;2023-09-19T17:41:56;100846.56;;;20.96
24714;BMP280;12820;51.580;5.010;2023-09-19T17:46:58;100845.75;;;20.80
24714;BMP280;12820;51.580;5.010;2023-09-19T17:52:00;100846.41;;;20.68
24714;BMP280;12820;51.580;5.010;2023-09-19T17:57:03;100845.25;;;20.59
24714;BMP280;12820;51.580;5.010;2023-09-19T18:02:05;100848.28;;;20.50
24714;BMP280;12820;51.580;5.010;2023-09-19T18:07:08;100848.22;;;20.36
24714;BMP280;12820;51.580;5.010;2023-09-19T18:12:11;100853.13;;;20.24
24714;BMP280;12820;51.580;5.010;2023-09-19T18:17:13;100854.56;;;20.13
24714;BMP280;12820;51.580;5.010;2023-09-19T18:22:16;100856.84;;;20.02
24714;BMP280;12820;51.580;5.010;2023-09-19T18:27:18;100856.47;;;19.93
24714;BMP280;12820;51.580;5.010;2023-09-19T18:32:22;100875.56;;;19.86
24714;BMP280;12820;51.580;5.010;2023-09-19T18:37:25;100881.81;;;19.81
24714;BMP280;12820;51.580;5.010;2023-09-19T18:42:28;100871.00;;;19.76
24714;BMP280;12820;51.580;5.010;2023-09-19T18:47:31;100876.41;;;19.70
24714;BMP280;12820;51.580;5.010;2023-09-19T18:52:33;100872.38;;;19.66
24714;BMP280;12820;51.580;5.010;2023-09-19T18:57:36;100862.34;;;19.63
24714;BMP280;12820;51.580;5.010;2023-09-19T19:02:38;100863.06;;;19.65
24714;BMP280;12820;51.580;5.010;2023-09-19T19:07:41;100850.31;;;19.65
24714;BMP280;12820;51.580;5.010;2023-09-19T19:12:43;100836.81;;;19.63
24714;BMP280;12820;51.580;5.010;2023-09-19T19:17:46;100834.34;;;19.62
24714;BMP280;12820;51.580;5.010;2023-09-19T19:22:49;100838.63;;;19.61
24714;BMP280;12820;51.580;5.010;2023-09-19T19:27:51;100847.03;;;19.63
24714;BMP280;12820;51.580;5.010;2023-09-19T19:32:54;100837.63;;;19.64
24714;BMP280;12820;51.580;5.010;2023-09-19T19:37:57;100830.72;;;19.66
24714;BMP280;12820;51.580;5.010;2023-09-19T19:43:02;100831.41;;;19.69
24714;BMP280;12820;51.580;5.010;2023-09-19T19:48:04;100827.13;;;19.70
24714;BMP280;12820;51.580;5.010;2023-09-19T19:53:07;100826.28;;;19.69
24714;BMP280;12820;51.580;5.010;2023-09-19T19:58:09;100828.59;;;19.74
24714;BMP280;12820;51.580;5.010;2023-09-19T20:03:12;100835.31;;;19.76
24714;BMP280;12820;51.580;5.010;2023-09-19T20:08:14;100839.34;;;19.80
24714;BMP280;12820;51.580;5.010;2023-09-19T20:13:16;100837.53;;;19.82
24714;BMP280;12820;51.580;5.010;2023-09-19T20:18:19;100844.13;;;19.86
24714;BMP280;12820;51.580;5.010;2023-09-19T20:23:22;100850.72;;;19.90
24714;BMP280;12820;51.580;5.010;2023-09-19T20:28:24;100855.66;;;19.92
24714;BMP280;12820;51.580;5.010;2023-09-19T20:33:26;100840.22;;;19.95
24714;BMP280;12820;51.580;5.010;2023-09-19T20:38:29;100848.53;;;19.99
24714;BMP280;12820;51.580;5.010;2023-09-19T20:43:31;100850.78;;;20.05
24714;BMP280;12820;51.580;5.010;2023-09-19T20:48:35;100847.31;;;20.06
24714;BMP280;12820;51.580;5.010;2023-09-19T20:53:39;100857.34;;;20.09
24714;BMP280;12820;51.580;5.010;2023-09-19T20:58:43;100841.88;;;20.11
24714;BMP280;12820;51.580;5.010;2023-09-19T21:03:46;100848.50;;;20.15
24714;BMP280;12820;51.580;5.010;2023-09-19T21:08:48;100856.88;;;20.17
24714;BMP280;12820;51.580;5.010;2023-09-19T21:13:51;100854.19;;;20.20
24714;BMP280;12820;51.580;5.010;2023-09-19T21:18:55;100856.56;;;20.23
24714;BMP280;12820;51.580;5.010;2023-09-19T21:23:57;100846.28;;;20.25
24714;BMP280;12820;51.580;5.010;2023-09-19T21:28:59;100847.84;;;20.27
24714;BMP280;12820;51.580;5.010;2023-09-19T21:34:02;100847.69;;;20.30
24714;BMP280;12820;51.580;5.010;2023-09-19T21:39:07;100847.56;;;20.33
24714;BMP280;12820;51.580;5.010;2023-09-19T21:44:09;100843.28;;;20.33
24714;BMP280;12820;51.580;5.010;2023-09-19T21:49:12;100819.47;;;20.33
24714;BMP280;12820;51.580;5.010;2023-09-19T21:54:14;100823.78;;;20.31
24714;BMP280;12820;51.580;5.010;2023-09-19T21:59:16;100819.69;;;20.28
24714;BMP280;12820;51.580;5.010;2023-09-19T22:04:19;100809.63;;;20.26
24714;BMP280;12820;51.580;5.010;2023-09-19T22:09:23;100827.66;;;20.23
24714;BMP280;12820;51.580;5.010;2023-09-19T22:14:26;100824.53;;;20.18
24714;BMP280;12820;51.580;5.010;2023-09-19T22:19:31;100806.00;;;20.14
24714;BMP280;12820;51.580;5.010;2023-09-19T22:24:33;100811.25;;;20.11
24714;BMP280;12820;51.580;5.010;2023-09-19T22:29:36;100806.38;;;20.07
24714;BMP280;12820;51.580;5.010;2023-09-19T22:34:38;100812.44;;;20.06
24714;BMP280;12820;51.580;5.010;2023-09-19T22:39:40;100799.09;;;20.01
24714;BMP280;12820;51.580;5.010;2023-09-19T22:44:44;100804.41;;;19.97
24714;BMP280;12820;51.580;5.010;2023-09-19T22:49:47;100795.34;;;19.92
24714;BMP280;12820;51.580;5.010;2023-09-19T22:54:50;100802.31;;;19.88
24714;BMP280;12820;51.580;5.010;2023-09-19T22:59:53;100804.16;;;19.86
24714;BMP280;12820;51.580;5.010;2023-09-19T23:04:56;100795.81;;;19.83
24714;BMP280;12820;51.580;5.010;2023-09-19T23:10:03;100792.47;;;19.82
24714;BMP280;12820;51.580;5.010;2023-09-19T23:15:08;100792.34;;;19.84
24714;BMP280;12820;51.580;5.010;2023-09-19T23:20:13;100788.91;;;19.85
24714;BMP280;12820;51.580;5.010;2023-09-19T23:25:20;100798.22;;;19.86
24714;BMP280;12820;51.580;5.010;2023-09-19T23:30:30;100811.69;;;19.88
24714;BMP280;12820;51.580;5.010;2023-09-19T23:35:34;100813.47;;;19.87
24714;BMP280;12820;51.580;5.010;2023-09-19T23:40:37;100806.59;;;19.88
24714;BMP280;12820;51.580;5.010;2023-09-19T23:45:41;100816.00;;;19.87
24714;BMP280;12820;51.580;5.010;2023-09-19T23:50:43;100828.84;;;19.86
24714;BMP280;12820;51.580;5.010;2023-09-19T23:55:49;100830.50;;;19.87
